createdAt,value
2023-02-25T00:00:44.259Z,33.96
2023-02-25T00:01:57.727Z,32.06
2023-02-25T00:02:44.346Z,32.45
2023-02-25T00:03:43.241Z,32.87
2023-02-25T00:04:44.220Z,33.89
2023-02-25T00:05:44.195Z,34.97
2023-02-25T00:06:44.192Z,37.22
2023-02-25T00:07:44.191Z,33.36
2023-02-25T00:08:44.167Z,35.61
2023-02-25T00:09:44.169Z,34.46
2023-02-25T00:10:44.178Z,34.03
2023-02-25T00:11:44.178Z,34.49
2023-02-25T00:12:43.143Z,33.65
2023-02-25T00:13:44.147Z,34.36
2023-02-25T00:14:44.129Z,32.81
2023-02-25T00:15:43.120Z,36.66
2023-02-25T00:16:44.191Z,33.27
2023-02-25T00:17:44.116Z,30.45
2023-02-25T00:18:43.099Z,32.19
2023-02-25T00:19:43.113Z,30.82
2023-02-25T00:20:43.084Z,31.72
2023-02-25T00:21:44.098Z,35.26
2023-02-25T00:22:44.070Z,34.16
2023-02-25T00:23:44.066Z,32.45
2023-02-25T00:24:44.110Z,31.23
2023-02-25T00:25:43.035Z,33.26
2023-02-25T00:26:43.064Z,31.27
2023-02-25T00:27:44.037Z,32.57
2023-02-25T00:28:44.062Z,31.71
2023-02-25T00:29:44.103Z,34.41
2023-02-25T00:30:44.386Z,32.98
2023-02-25T00:31:44.513Z,32.87
2023-02-25T00:32:44.337Z,35.74
2023-02-25T00:33:44.307Z,36.95
2023-02-25T00:34:44.369Z,32.93
2023-02-25T00:35:44.409Z,34.58
2023-02-25T00:36:44.544Z,30.89
2023-02-25T00:37:44.524Z,36.73
2023-02-25T00:38:44.592Z,33.76
2023-02-25T00:39:43.730Z,31.74
2023-02-25T00:40:44.675Z,34.79
2023-02-25T00:41:44.833Z,34.19
2023-02-25T00:42:45.251Z,30.36
2023-02-25T00:43:43.846Z,30.56
2023-02-25T00:44:44.905Z,30.32
2023-02-25T00:45:43.969Z,27.79
2023-02-25T00:46:45.059Z,29.58
2023-02-25T00:47:45.072Z,30.54
2023-02-25T00:48:45.133Z,29.75
2023-02-25T00:49:45.183Z,30.79
2023-02-25T00:50:45.240Z,33.24
2023-02-25T00:51:45.281Z,31.14
2023-02-25T00:52:44.341Z,29.28
2023-02-25T00:53:44.401Z,28.08
2023-02-25T00:54:45.460Z,28.69
2023-02-25T00:55:45.529Z,28.29
2023-02-25T00:56:45.566Z,28.41
2023-02-25T00:57:45.663Z,29.62
2023-02-25T00:58:45.709Z,27.92
2023-02-25T00:59:45.740Z,27.86
2023-02-25T01:00:51.500Z,30.24
2023-02-25T01:01:45.905Z,30.41
2023-02-25T01:02:44.840Z,30.98
2023-02-25T01:03:44.776Z,30.28
2023-02-25T01:04:44.778Z,29.10
2023-02-25T01:05:44.767Z,32.88
2023-02-25T01:06:45.752Z,30.21
2023-02-25T01:07:45.759Z,30.80
2023-02-25T01:08:45.740Z,36.26
2023-02-25T01:09:45.738Z,35.43
2023-02-25T01:10:45.733Z,39.40
2023-02-25T01:11:44.715Z,34.92
2023-02-25T01:12:45.705Z,34.41
2023-02-25T01:13:45.762Z,36.12
2023-02-25T01:14:45.699Z,34.29
2023-02-25T01:15:45.711Z,33.94
2023-02-25T01:16:44.683Z,35.36
2023-02-25T01:17:45.679Z,36.18
2023-02-25T01:18:45.676Z,34.31
2023-02-25T01:19:45.653Z,32.31
2023-02-25T01:20:45.654Z,31.35
2023-02-25T01:21:45.640Z,29.57
2023-02-25T01:22:45.667Z,28.38
2023-02-25T01:23:45.700Z,31.95
2023-02-25T01:24:44.734Z,32.68
2023-02-25T01:25:45.797Z,28.70
2023-02-25T01:26:45.870Z,33.44
2023-02-25T01:27:44.918Z,28.81
2023-02-25T01:28:46.016Z,29.03
2023-02-25T01:29:46.075Z,30.68
2023-02-25T01:30:46.130Z,29.34
2023-02-25T01:31:46.410Z,36.96
2023-02-25T01:32:46.274Z,33.37
2023-02-25T01:33:46.304Z,32.55
2023-02-25T01:34:46.325Z,30.21
2023-02-25T01:35:46.397Z,29.84
2023-02-25T01:36:46.465Z,30.82
2023-02-25T01:37:45.515Z,31.04
2023-02-25T01:38:46.597Z,30.71
2023-02-25T01:39:46.646Z,31.68
2023-02-25T01:40:45.689Z,27.56
2023-02-25T01:41:45.756Z,29.39
2023-02-25T01:42:46.823Z,28.77
2023-02-25T01:43:46.899Z,33.70
2023-02-25T01:44:46.933Z,33.08
2023-02-25T01:45:47.028Z,31.57
2023-02-25T01:46:47.131Z,32.93
2023-02-25T01:47:47.121Z,32.97
2023-02-25T01:48:46.182Z,30.77
2023-02-25T01:49:47.256Z,33.42
2023-02-25T01:50:47.320Z,33.88
2023-02-25T01:51:47.381Z,30.70
2023-02-25T01:52:47.442Z,27.43
2023-02-25T01:53:47.502Z,32.19
2023-02-25T01:54:47.572Z,34.20
2023-02-25T01:55:47.640Z,31.50
2023-02-25T01:56:46.672Z,31.63
2023-02-25T01:57:47.731Z,30.94
2023-02-25T01:58:47.808Z,31.48
2023-02-25T01:59:47.875Z,36.79
2023-02-25T02:00:48.006Z,31.42
2023-02-25T02:01:48.043Z,32.75
2023-02-25T02:02:48.099Z,30.46
2023-02-25T02:03:47.120Z,30.61
2023-02-25T02:04:47.166Z,34.91
2023-02-25T02:05:47.236Z,27.22
2023-02-25T02:06:47.324Z,29.46
2023-02-25T02:07:48.386Z,29.68
2023-02-25T02:08:47.426Z,29.65
2023-02-25T02:09:47.506Z,33.53
2023-02-25T02:10:48.547Z,34.70
2023-02-25T02:11:48.602Z,34.51
2023-02-25T02:12:48.654Z,31.34
2023-02-25T02:13:47.732Z,35.52
2023-02-25T02:14:47.813Z,43.15
2023-02-25T02:15:47.847Z,37.83
2023-02-25T02:16:48.920Z,34.51
2023-02-25T02:17:49.005Z,38.55
2023-02-25T02:18:49.034Z,41.31
2023-02-25T02:19:49.116Z,44.23
2023-02-25T02:20:49.163Z,44.64
2023-02-25T02:21:49.217Z,45.10
2023-02-25T02:22:49.293Z,45.23
2023-02-25T02:23:49.365Z,41.21
2023-02-25T02:24:49.471Z,37.43
2023-02-25T02:25:49.478Z,39.29
2023-02-25T02:26:49.555Z,41.73
2023-02-25T02:27:49.601Z,43.12
2023-02-25T02:28:49.686Z,45.57
2023-02-25T02:29:49.756Z,43.39
2023-02-25T02:30:49.847Z,44.05
2023-02-25T02:31:49.991Z,44.75
2023-02-25T02:32:49.939Z,41.66
2023-02-25T02:33:49.026Z,35.29
2023-02-25T02:34:50.080Z,33.07
2023-02-25T02:35:49.122Z,36.45
2023-02-25T02:36:50.199Z,43.17
2023-02-25T02:37:50.270Z,45.11
2023-02-25T02:38:50.325Z,40.07
2023-02-25T02:39:50.381Z,36.33
2023-02-25T02:40:49.425Z,36.95
2023-02-25T02:41:50.491Z,36.78
2023-02-25T02:42:50.562Z,39.12
2023-02-25T02:43:50.656Z,37.65
2023-02-25T02:44:49.693Z,33.56
2023-02-25T02:45:50.836Z,35.53
2023-02-25T02:46:49.803Z,38.83
2023-02-25T02:47:49.853Z,36.33
2023-02-25T02:48:50.945Z,40.31
2023-02-25T02:49:50.990Z,41.69
2023-02-25T02:50:51.056Z,41.37
2023-02-25T02:51:51.111Z,37.11
2023-02-25T02:52:50.187Z,46.28
2023-02-25T02:53:51.243Z,43.45
2023-02-25T02:54:51.340Z,40.75
2023-02-25T02:55:51.339Z,38.70
2023-02-25T02:56:51.400Z,45.90
2023-02-25T02:57:51.457Z,42.02
2023-02-25T02:58:51.518Z,33.78
2023-02-25T02:59:50.563Z,40.31
2023-02-25T03:00:50.734Z,36.01
2023-02-25T03:01:51.669Z,35.00
2023-02-25T03:02:51.732Z,34.75
2023-02-25T03:03:51.874Z,28.76
2023-02-25T03:04:51.894Z,28.74
2023-02-25T03:05:51.941Z,32.54
2023-02-25T03:06:50.974Z,29.67
2023-02-25T03:07:52.033Z,34.10
2023-02-25T03:08:51.095Z,28.04
2023-02-25T03:09:51.156Z,31.12
2023-02-25T03:10:52.216Z,29.28
2023-02-25T03:11:52.273Z,28.97
2023-02-25T03:12:52.353Z,31.66
2023-02-25T03:13:52.406Z,27.80
2023-02-25T03:14:52.459Z,30.27
2023-02-25T03:15:52.539Z,28.62
2023-02-25T03:16:51.647Z,29.15
2023-02-25T03:17:52.659Z,28.55
2023-02-25T03:18:52.702Z,27.60
2023-02-25T03:19:51.758Z,29.39
2023-02-25T03:20:52.838Z,31.22
2023-02-25T03:21:51.831Z,31.93
2023-02-25T03:22:52.869Z,31.65
2023-02-25T03:23:52.939Z,29.57
2023-02-25T03:24:52.994Z,29.51
2023-02-25T03:25:53.067Z,31.15
2023-02-25T03:26:53.062Z,32.11
2023-02-25T03:27:53.115Z,35.45
2023-02-25T03:28:53.152Z,42.37
2023-02-25T03:29:53.190Z,35.33
2023-02-25T03:30:53.276Z,34.94
2023-02-25T03:31:53.438Z,32.29
2023-02-25T03:32:53.404Z,36.32
2023-02-25T03:33:53.349Z,32.61
2023-02-25T03:34:53.398Z,31.68
2023-02-25T03:35:53.471Z,31.59
2023-02-25T03:36:53.499Z,31.41
2023-02-25T03:37:53.522Z,28.93
2023-02-25T03:38:52.552Z,27.61
2023-02-25T03:39:52.601Z,30.31
2023-02-25T03:40:53.612Z,31.16
2023-02-25T03:41:53.625Z,30.06
2023-02-25T03:42:52.632Z,35.55
2023-02-25T03:43:52.625Z,42.44
2023-02-25T03:44:53.681Z,39.51
2023-02-25T03:45:53.702Z,35.99
2023-02-25T03:46:53.708Z,36.55
2023-02-25T03:47:53.669Z,37.40
2023-02-25T03:48:53.685Z,32.50
2023-02-25T03:49:53.736Z,33.18
2023-02-25T03:50:52.679Z,36.37
2023-02-25T03:51:53.659Z,34.57
2023-02-25T03:52:53.706Z,33.57
2023-02-25T03:53:53.657Z,30.06
2023-02-25T03:54:53.681Z,35.39
2023-02-25T03:55:53.646Z,32.95
2023-02-25T03:56:52.657Z,27.57
2023-02-25T03:57:53.667Z,29.42
2023-02-25T03:58:52.666Z,34.04
2023-02-25T03:59:53.686Z,29.84
2023-02-25T04:00:53.686Z,27.96
2023-02-25T04:01:53.687Z,27.67
2023-02-25T04:02:53.685Z,29.12
2023-02-25T04:03:53.691Z,31.31
2023-02-25T04:04:53.770Z,31.62
2023-02-25T04:05:53.698Z,30.07
2023-02-25T04:06:53.703Z,26.24
2023-02-25T04:07:53.717Z,27.58
2023-02-25T04:08:53.752Z,31.87
2023-02-25T04:09:53.720Z,30.95
2023-02-25T04:10:52.734Z,30.21
2023-02-25T04:11:53.745Z,31.39
2023-02-25T04:12:53.765Z,31.64
2023-02-25T04:13:53.786Z,30.94
2023-02-25T04:14:53.790Z,33.61
2023-02-25T04:15:53.942Z,37.85
2023-02-25T04:16:52.854Z,36.65
2023-02-25T04:17:53.849Z,32.67
2023-02-25T04:18:53.905Z,33.17
2023-02-25T04:19:53.881Z,33.57
2023-02-25T04:20:53.883Z,35.17
2023-02-25T04:21:53.891Z,34.57
2023-02-25T04:22:52.879Z,34.71
2023-02-25T04:23:53.888Z,33.31
2023-02-25T04:24:53.910Z,31.35
2023-02-25T04:25:53.892Z,34.20
2023-02-25T04:26:53.909Z,33.63
2023-02-25T04:27:53.895Z,32.94
2023-02-25T04:28:53.927Z,27.56
2023-02-25T04:29:53.918Z,41.85
2023-02-25T04:30:54.001Z,41.80
2023-02-25T04:31:53.093Z,36.37
2023-02-25T04:32:53.031Z,31.91
2023-02-25T04:33:52.911Z,37.94
2023-02-25T04:34:53.924Z,36.48
2023-02-25T04:35:53.940Z,33.15
2023-02-25T04:36:53.970Z,33.77
2023-02-25T04:37:53.970Z,32.60
2023-02-25T04:38:53.970Z,30.17
2023-02-25T04:39:53.955Z,41.20
2023-02-25T04:40:53.996Z,31.04
2023-02-25T04:41:53.976Z,32.44
2023-02-25T04:42:53.948Z,30.45
2023-02-25T04:43:53.944Z,31.22
2023-02-25T04:44:53.952Z,27.11
2023-02-25T04:45:53.947Z,36.38
2023-02-25T04:46:54.066Z,40.34
2023-02-25T04:47:53.938Z,37.59
2023-02-25T04:48:53.948Z,32.68
2023-02-25T04:49:52.945Z,40.19
2023-02-25T04:50:52.941Z,37.05
2023-02-25T04:51:53.966Z,39.10
2023-02-25T04:52:53.936Z,39.38
2023-02-25T04:53:53.945Z,36.02
2023-02-25T04:54:52.939Z,34.11
2023-02-25T04:55:53.940Z,37.58
2023-02-25T04:56:52.964Z,34.43
2023-02-25T04:57:52.966Z,39.52
2023-02-25T04:58:53.984Z,39.63
2023-02-25T04:59:53.932Z,34.00
2023-02-25T05:00:54.015Z,35.73
2023-02-25T05:01:54.024Z,40.55
2023-02-25T05:02:53.943Z,34.70
2023-02-25T05:03:53.955Z,41.04
2023-02-25T05:04:53.048Z,38.50
2023-02-25T05:05:53.958Z,38.76
2023-02-25T05:06:53.952Z,38.60
2023-02-25T05:07:54.002Z,34.30
2023-02-25T05:08:52.959Z,38.12
2023-02-25T05:09:53.965Z,38.23
2023-02-25T05:10:53.973Z,34.68
2023-02-25T05:11:54.844Z,36.58
2023-02-25T05:12:53.990Z,35.93
2023-02-25T05:13:54.018Z,37.49
2023-02-25T05:14:53.983Z,43.76
2023-02-25T05:15:54.052Z,37.73
2023-02-25T05:16:53.010Z,35.02
2023-02-25T05:17:53.007Z,38.40
2023-02-25T05:18:56.071Z,36.95
2023-02-25T05:19:53.990Z,34.50
2023-02-25T05:20:52.985Z,41.29
2023-02-25T05:21:53.993Z,40.97
2023-02-25T05:22:54.090Z,45.10
2023-02-25T05:23:52.973Z,40.55
2023-02-25T05:24:53.942Z,36.82
2023-02-25T05:25:53.947Z,38.15
2023-02-25T05:26:53.945Z,37.69
2023-02-25T05:27:52.964Z,38.09
2023-02-25T05:28:53.932Z,43.32
2023-02-25T05:29:54.024Z,41.48
2023-02-25T05:30:53.998Z,45.29
2023-02-25T05:31:54.107Z,40.34
2023-02-25T05:32:53.965Z,38.36
2023-02-25T05:33:52.888Z,40.62
2023-02-25T05:34:53.887Z,40.93
2023-02-25T05:35:53.875Z,38.59
2023-02-25T05:36:52.863Z,35.09
2023-02-25T05:37:52.845Z,35.52
2023-02-25T05:38:53.842Z,39.30
2023-02-25T05:39:52.828Z,34.31
2023-02-25T05:40:53.816Z,41.66
2023-02-25T05:41:53.821Z,41.07
2023-02-25T05:42:53.829Z,48.90
2023-02-25T05:43:53.839Z,52.68
2023-02-25T05:44:53.793Z,54.56
2023-02-25T05:45:53.774Z,42.04
2023-02-25T05:46:53.821Z,46.67
2023-02-25T05:47:53.785Z,51.47
2023-02-25T05:48:53.848Z,48.89
2023-02-25T05:49:53.755Z,39.01
2023-02-25T05:50:53.747Z,40.05
2023-02-25T05:51:52.733Z,39.92
2023-02-25T05:52:53.735Z,38.43
2023-02-25T05:53:52.718Z,42.49
2023-02-25T05:54:53.708Z,42.44
2023-02-25T05:55:53.704Z,40.95
2023-02-25T05:56:53.684Z,50.79
2023-02-25T05:57:53.682Z,52.60
2023-02-25T05:58:53.676Z,49.87
2023-02-25T05:59:53.694Z,52.23
2023-02-25T06:00:53.663Z,61.78
2023-02-25T06:01:53.684Z,64.49
2023-02-25T06:02:53.703Z,57.20
2023-02-25T06:03:53.632Z,60.32
2023-02-25T06:04:52.625Z,52.67
2023-02-25T06:05:53.627Z,54.64
2023-02-25T06:06:53.628Z,49.81
2023-02-25T06:07:52.620Z,54.98
2023-02-25T06:08:53.597Z,55.71
2023-02-25T06:09:53.615Z,53.66
2023-02-25T06:10:52.581Z,64.37
2023-02-25T06:11:52.651Z,59.07
2023-02-25T06:12:53.586Z,54.41
2023-02-25T06:13:53.582Z,58.70
2023-02-25T06:14:53.552Z,65.32
2023-02-25T06:15:52.566Z,58.46
2023-02-25T06:16:53.586Z,52.04
2023-02-25T06:17:53.544Z,54.81
2023-02-25T06:18:53.532Z,59.18
2023-02-25T06:19:53.509Z,50.12
2023-02-25T06:20:52.512Z,46.62
2023-02-25T06:21:52.483Z,42.59
2023-02-25T06:22:53.497Z,40.61
2023-02-25T06:23:53.490Z,45.87
2023-02-25T06:24:53.459Z,42.09
2023-02-25T06:25:53.457Z,44.03
2023-02-25T06:26:53.485Z,54.84
2023-02-25T06:27:53.457Z,53.40
2023-02-25T06:28:53.444Z,54.75
2023-02-25T06:29:52.443Z,52.95
2023-02-25T06:30:53.509Z,46.23
2023-02-25T06:31:53.616Z,51.56
2023-02-25T06:32:53.543Z,52.87
2023-02-25T06:33:53.423Z,54.03
2023-02-25T06:34:53.391Z,55.29
2023-02-25T06:35:53.385Z,47.89
2023-02-25T06:36:53.465Z,46.26
2023-02-25T06:37:53.386Z,47.23
2023-02-25T06:38:53.460Z,46.36
2023-02-25T06:39:53.366Z,46.73
2023-02-25T06:40:53.352Z,41.56
2023-02-25T06:41:53.335Z,35.72
2023-02-25T06:42:53.343Z,39.31
2023-02-25T06:43:52.649Z,31.64
2023-02-25T06:44:53.336Z,37.02
2023-02-25T06:45:52.374Z,42.46
2023-02-25T06:46:52.305Z,47.17
2023-02-25T06:47:52.325Z,46.28
2023-02-25T06:48:53.354Z,49.66
2023-02-25T06:49:53.344Z,52.84
2023-02-25T06:50:53.341Z,56.73
2023-02-25T06:51:53.392Z,50.09
2023-02-25T06:52:52.371Z,50.56
2023-02-25T06:53:53.450Z,52.51
2023-02-25T06:54:53.396Z,54.74
2023-02-25T06:55:53.420Z,54.00
2023-02-25T06:56:52.418Z,51.42
2023-02-25T06:57:52.438Z,43.16
2023-02-25T06:58:53.447Z,42.90
2023-02-25T06:59:52.452Z,39.38
2023-02-25T07:00:52.547Z,45.95
2023-02-25T07:01:53.502Z,52.68
2023-02-25T07:02:52.558Z,55.39
2023-02-25T07:03:52.570Z,57.38
2023-02-25T07:04:53.592Z,54.88
2023-02-25T07:05:52.568Z,46.85
2023-02-25T07:06:53.597Z,59.72
2023-02-25T07:07:52.602Z,59.20
2023-02-25T07:08:53.625Z,47.03
2023-02-25T07:09:53.637Z,61.01
2023-02-25T07:10:52.653Z,57.85
2023-02-25T07:11:53.686Z,56.91
2023-02-25T07:12:53.721Z,49.03
2023-02-25T07:13:53.699Z,41.16
2023-02-25T07:14:52.723Z,48.67
2023-02-25T07:15:53.781Z,48.69
2023-02-25T07:16:53.840Z,37.54
2023-02-25T07:17:53.808Z,43.52
2023-02-25T07:18:53.836Z,33.00
2023-02-25T07:19:53.840Z,43.09
2023-02-25T07:20:53.829Z,38.13
2023-02-25T07:21:53.853Z,46.22
2023-02-25T07:22:53.888Z,47.85
2023-02-25T07:23:53.894Z,52.20
2023-02-25T07:24:53.983Z,45.32
2023-02-25T07:25:53.928Z,44.22
2023-02-25T07:26:53.961Z,52.78
2023-02-25T07:27:53.974Z,59.96
2023-02-25T07:28:53.993Z,62.53
2023-02-25T07:29:54.030Z,61.88
2023-02-25T07:30:54.225Z,55.28
2023-02-25T07:31:53.229Z,56.77
2023-02-25T07:32:54.112Z,56.42
2023-02-25T07:33:54.095Z,60.80
2023-02-25T07:34:54.128Z,62.40
2023-02-25T07:35:53.180Z,61.82
2023-02-25T07:36:53.162Z,61.19
2023-02-25T07:37:54.180Z,50.47
2023-02-25T07:38:54.222Z,40.84
2023-02-25T07:39:54.222Z,45.05
2023-02-25T07:40:54.247Z,46.88
2023-02-25T07:41:54.271Z,45.78
2023-02-25T07:42:54.312Z,46.82
2023-02-25T07:43:54.319Z,39.62
2023-02-25T07:44:54.332Z,52.02
2023-02-25T07:45:54.418Z,47.65
2023-02-25T07:46:54.374Z,38.70
2023-02-25T07:47:53.406Z,50.69
2023-02-25T07:48:53.418Z,51.86
2023-02-25T07:49:53.414Z,55.99
2023-02-25T07:50:53.430Z,51.79
2023-02-25T07:51:54.484Z,52.98
2023-02-25T07:52:54.472Z,44.58
2023-02-25T07:53:54.507Z,37.63
2023-02-25T07:54:54.518Z,37.50
2023-02-25T07:55:54.532Z,34.05
2023-02-25T07:56:54.540Z,39.48
2023-02-25T07:57:54.559Z,51.89
2023-02-25T07:58:54.578Z,57.61
2023-02-25T07:59:54.598Z,48.72
2023-02-25T08:00:54.613Z,41.65
2023-02-25T08:01:53.645Z,34.94
2023-02-25T08:02:54.749Z,37.90
2023-02-25T08:03:54.671Z,39.14
2023-02-25T08:04:54.671Z,44.31
2023-02-25T08:05:53.703Z,55.60
2023-02-25T08:06:54.723Z,55.60
2023-02-25T08:07:54.778Z,53.62
2023-02-25T08:08:54.803Z,44.44
2023-02-25T08:09:53.806Z,45.74
2023-02-25T08:10:54.834Z,46.23
2023-02-25T08:11:54.852Z,42.41
2023-02-25T08:12:54.884Z,47.06
2023-02-25T08:13:54.902Z,62.53
2023-02-25T08:14:54.917Z,60.26
2023-02-25T08:15:55.012Z,60.09
2023-02-25T08:16:53.972Z,51.57
2023-02-25T08:17:55.004Z,49.19
2023-02-25T08:18:55.028Z,54.05
2023-02-25T08:19:54.055Z,58.05
2023-02-25T08:20:55.091Z,68.09
2023-02-25T08:21:55.123Z,66.11
2023-02-25T08:22:55.125Z,66.76
2023-02-25T08:23:55.174Z,51.60
2023-02-25T08:24:55.190Z,62.05
2023-02-25T08:25:55.208Z,68.27
2023-02-25T08:26:55.320Z,68.02
2023-02-25T08:27:54.259Z,62.95
2023-02-25T08:28:55.279Z,73.92
2023-02-25T08:29:55.315Z,72.01
2023-02-25T08:30:55.518Z,67.49
2023-02-25T08:31:54.707Z,60.59
2023-02-25T08:32:54.426Z,72.03
2023-02-25T08:33:55.427Z,63.22
2023-02-25T08:34:55.460Z,61.65
2023-02-25T08:35:55.469Z,65.03
2023-02-25T08:36:55.517Z,55.98
2023-02-25T08:37:54.521Z,59.78
2023-02-25T08:38:54.623Z,47.70
2023-02-25T08:39:54.597Z,67.08
2023-02-25T08:40:54.606Z,67.66
2023-02-25T08:41:55.618Z,50.72
2023-02-25T08:42:54.650Z,50.45
2023-02-25T08:43:55.723Z,54.38
2023-02-25T08:44:55.704Z,59.26
2023-02-25T08:45:55.731Z,67.34
2023-02-25T08:46:55.854Z,78.89
2023-02-25T08:47:55.776Z,68.93
2023-02-25T08:48:55.823Z,70.64
2023-02-25T08:49:54.846Z,77.67
2023-02-25T08:50:55.865Z,77.67
2023-02-25T08:51:54.889Z,71.04
2023-02-25T08:52:55.918Z,66.11
2023-02-25T08:53:56.021Z,54.88
2023-02-25T08:54:55.979Z,47.90
2023-02-25T08:55:56.028Z,55.99
2023-02-25T08:56:56.036Z,54.23
2023-02-25T08:57:56.046Z,58.09
2023-02-25T08:58:56.105Z,59.10
2023-02-25T08:59:56.100Z,56.26
2023-02-25T09:00:56.203Z,54.80
2023-02-25T09:01:55.171Z,60.58
2023-02-25T09:02:55.193Z,62.59
2023-02-25T09:03:56.228Z,54.72
2023-02-25T09:04:56.267Z,62.14
2023-02-25T09:05:56.266Z,62.98
2023-02-25T09:06:55.280Z,63.19
2023-02-25T09:07:56.307Z,67.59
2023-02-25T09:08:56.331Z,67.82
2023-02-25T09:09:55.349Z,58.09
2023-02-25T09:10:56.369Z,59.92
2023-02-25T09:11:56.440Z,55.95
2023-02-25T09:12:55.433Z,67.95
2023-02-25T09:13:56.471Z,72.79
2023-02-25T09:14:56.466Z,71.49
2023-02-25T09:15:56.510Z,75.74
2023-02-25T09:16:56.579Z,70.28
2023-02-25T09:17:56.605Z,66.75
2023-02-25T09:18:55.572Z,62.51
2023-02-25T09:19:56.607Z,65.19
2023-02-25T09:20:55.622Z,55.98
2023-02-25T09:21:55.641Z,57.19
2023-02-25T09:22:57.444Z,64.89
2023-02-25T09:23:56.729Z,69.36
2023-02-25T09:24:56.714Z,69.23
2023-02-25T09:25:56.753Z,68.78
2023-02-25T09:26:56.768Z,75.00
2023-02-25T09:27:56.798Z,75.11
2023-02-25T09:28:56.798Z,65.46
2023-02-25T09:29:56.893Z,68.11
2023-02-25T09:30:56.904Z,55.59
2023-02-25T09:31:57.111Z,50.04
2023-02-25T09:32:56.122Z,58.29
2023-02-25T09:33:56.956Z,61.85
2023-02-25T09:34:57.026Z,71.54
2023-02-25T09:35:57.101Z,57.94
2023-02-25T09:36:56.039Z,62.81
2023-02-25T09:37:57.104Z,60.60
2023-02-25T09:38:57.133Z,58.73
2023-02-25T09:39:57.151Z,74.57
2023-02-25T09:40:57.203Z,72.73
2023-02-25T09:41:57.211Z,54.50
2023-02-25T09:42:57.250Z,51.97
2023-02-25T09:43:56.306Z,51.97
2023-02-25T09:44:57.302Z,50.81
2023-02-25T09:45:56.397Z,70.71
2023-02-25T09:46:57.382Z,74.74
2023-02-25T09:47:56.541Z,54.04
2023-02-25T09:48:57.419Z,54.61
2023-02-25T09:49:57.464Z,64.93
2023-02-25T09:50:56.490Z,60.59
2023-02-25T09:51:57.555Z,67.19
2023-02-25T09:52:57.610Z,51.67
2023-02-25T09:53:57.729Z,54.32
2023-02-25T09:54:57.627Z,49.43
2023-02-25T09:55:56.650Z,57.46
2023-02-25T09:56:56.688Z,57.36
2023-02-25T09:57:57.723Z,56.37
2023-02-25T09:58:57.761Z,54.96
2023-02-25T09:59:57.833Z,57.90
2023-02-25T10:00:57.823Z,62.87
2023-02-25T10:01:58.017Z,50.10
2023-02-25T10:02:58.073Z,61.55
2023-02-25T10:03:56.944Z,66.19
2023-02-25T10:04:57.983Z,59.55
2023-02-25T10:05:58.035Z,46.41
2023-02-25T10:06:58.045Z,48.99
2023-02-25T10:07:57.100Z,55.60
2023-02-25T10:08:58.135Z,50.50
2023-02-25T10:09:58.198Z,52.94
2023-02-25T10:10:58.214Z,70.76
2023-02-25T10:11:58.242Z,75.69
2023-02-25T10:12:58.293Z,56.80
2023-02-25T10:13:58.317Z,54.88
2023-02-25T10:14:58.385Z,52.29
2023-02-25T10:15:58.431Z,56.38
2023-02-25T10:16:58.478Z,53.81
2023-02-25T10:17:58.505Z,63.05
2023-02-25T10:18:58.519Z,53.05
2023-02-25T10:19:58.576Z,51.57
2023-02-25T10:20:58.602Z,46.49
2023-02-25T10:21:58.650Z,60.71
2023-02-25T10:22:58.672Z,70.96
2023-02-25T10:23:58.720Z,84.28
2023-02-25T10:24:58.758Z,81.07
2023-02-25T10:25:58.792Z,76.52
2023-02-25T10:26:58.848Z,61.13
2023-02-25T10:27:58.889Z,63.41
2023-02-25T10:28:58.926Z,61.80
2023-02-25T10:29:57.974Z,54.86
2023-02-25T10:30:59.187Z,64.97
2023-02-25T10:31:59.405Z,61.88
2023-02-25T10:32:59.179Z,59.40
2023-02-25T10:33:59.155Z,52.82
2023-02-25T10:34:58.182Z,46.90
2023-02-25T10:35:58.252Z,55.55
2023-02-25T10:36:59.277Z,48.21
2023-02-25T10:37:58.314Z,50.88
2023-02-25T10:38:59.367Z,46.12
2023-02-25T10:39:59.403Z,50.99
2023-02-25T10:40:58.433Z,49.29
2023-02-25T10:41:59.464Z,57.94
2023-02-25T10:42:59.512Z,75.27
2023-02-25T10:43:59.563Z,88.98
2023-02-25T10:44:59.605Z,87.70
2023-02-25T10:45:59.671Z,80.79
2023-02-25T10:46:59.678Z,88.12
2023-02-25T10:47:59.744Z,91.46
2023-02-25T10:48:59.785Z,69.48
2023-02-25T10:49:59.811Z,77.42
2023-02-25T10:50:59.857Z,83.86
2023-02-25T10:51:59.910Z,68.44
2023-02-25T10:52:59.937Z,55.47
2023-02-25T10:53:59.980Z,61.04
2023-02-25T10:55:00.010Z,60.89
2023-02-25T10:56:00.051Z,58.57
2023-02-25T10:56:59.105Z,60.84
2023-02-25T10:58:00.137Z,74.35
2023-02-25T10:59:00.183Z,69.28
2023-02-25T11:00:00.240Z,65.83
2023-02-25T11:01:00.265Z,66.70
2023-02-25T11:02:00.599Z,72.76
2023-02-25T11:03:00.389Z,73.99
2023-02-25T11:03:59.422Z,61.78
2023-02-25T11:05:00.426Z,62.82
2023-02-25T11:06:00.456Z,78.75
2023-02-25T11:07:00.505Z,68.96
2023-02-25T11:07:59.549Z,60.53
2023-02-25T11:08:59.586Z,62.69
2023-02-25T11:10:00.614Z,71.68
2023-02-25T11:11:00.690Z,77.71
2023-02-25T11:12:00.700Z,64.97
2023-02-25T11:13:00.732Z,61.62
2023-02-25T11:14:00.770Z,80.26
2023-02-25T11:15:00.796Z,66.09
2023-02-25T11:15:59.877Z,86.21
2023-02-25T11:17:00.864Z,83.06
2023-02-25T11:18:00.922Z,74.19
2023-02-25T11:19:00.954Z,73.37
2023-02-25T11:20:01.033Z,77.88
2023-02-25T11:21:00.039Z,76.30
2023-02-25T11:22:01.066Z,89.11
2023-02-25T11:23:00.120Z,84.97
2023-02-25T11:24:00.153Z,95.83
2023-02-25T11:25:00.200Z,102.89
2023-02-25T11:26:00.230Z,84.43
2023-02-25T11:27:01.267Z,80.17
2023-02-25T11:28:01.302Z,78.92
2023-02-25T11:29:01.340Z,72.33
2023-02-25T11:30:00.367Z,79.47
2023-02-25T11:31:00.463Z,91.96
2023-02-25T11:32:01.599Z,84.07
2023-02-25T11:33:00.443Z,86.56
2023-02-25T11:34:01.461Z,88.82
2023-02-25T11:35:01.502Z,101.01
2023-02-25T11:36:01.564Z,97.31
2023-02-25T11:37:01.549Z,100.24
2023-02-25T11:38:01.589Z,95.13
2023-02-25T11:39:01.620Z,87.69
2023-02-25T11:40:01.647Z,95.11
2023-02-25T11:41:01.686Z,88.28
2023-02-25T11:42:01.728Z,87.62
2023-02-25T11:43:01.778Z,90.74
2023-02-25T11:44:03.113Z,95.61
2023-02-25T11:45:01.797Z,84.76
2023-02-25T11:46:01.861Z,71.68
2023-02-25T11:47:00.863Z,85.24
2023-02-25T11:48:01.896Z,89.40
2023-02-25T11:49:01.946Z,86.31
2023-02-25T11:50:01.952Z,85.78
2023-02-25T11:51:02.008Z,79.10
2023-02-25T11:52:02.044Z,68.68
2023-02-25T11:53:02.115Z,70.92
2023-02-25T11:54:01.159Z,62.00
2023-02-25T11:55:02.210Z,54.78
2023-02-25T11:56:01.171Z,53.06
2023-02-25T11:57:01.185Z,61.46
2023-02-25T11:58:02.217Z,64.28
2023-02-25T11:59:02.249Z,59.77
2023-02-25T12:00:02.285Z,59.44
2023-02-25T12:01:01.317Z,54.84
2023-02-25T12:02:02.341Z,58.71
2023-02-25T12:03:02.430Z,56.54
2023-02-25T12:04:02.409Z,53.71
2023-02-25T12:05:02.455Z,67.04
2023-02-25T12:06:02.598Z,76.60
2023-02-25T12:07:02.526Z,78.27
2023-02-25T12:08:13.406Z,81.20
2023-02-25T12:09:02.548Z,81.30
2023-02-25T12:10:02.541Z,71.50
2023-02-25T12:11:01.625Z,66.70
2023-02-25T12:12:01.536Z,59.89
2023-02-25T12:13:02.532Z,58.19
2023-02-25T12:14:02.512Z,60.09
2023-02-25T12:15:01.518Z,59.09
2023-02-25T12:16:02.550Z,57.43
2023-02-25T12:17:02.506Z,50.69
2023-02-25T12:18:02.514Z,64.35
2023-02-25T12:19:02.720Z,80.60
2023-02-25T12:20:02.489Z,83.69
2023-02-25T12:21:02.492Z,79.91
2023-02-25T12:22:02.461Z,83.12
2023-02-25T12:23:02.452Z,89.84
2023-02-25T12:24:02.477Z,92.02
2023-02-25T12:25:02.469Z,88.10
2023-02-25T12:26:02.480Z,67.79
2023-02-25T12:27:02.441Z,64.09
2023-02-25T12:28:02.424Z,53.22
2023-02-25T12:29:01.447Z,56.01
2023-02-25T12:30:01.402Z,53.57
2023-02-25T12:31:02.473Z,51.65
2023-02-25T12:32:02.535Z,50.59
2023-02-25T12:33:01.395Z,53.90
2023-02-25T12:34:02.373Z,53.86
2023-02-25T12:35:02.388Z,51.22
2023-02-25T12:36:02.368Z,49.14
2023-02-25T12:37:01.356Z,47.01
2023-02-25T12:38:01.344Z,40.31
2023-02-25T12:39:02.344Z,43.79
2023-02-25T12:40:02.359Z,45.38
2023-02-25T12:41:02.354Z,50.90
2023-02-25T12:42:01.335Z,56.55
2023-02-25T12:43:02.322Z,59.11
2023-02-25T12:44:02.299Z,64.61
2023-02-25T12:45:02.300Z,82.50
2023-02-25T12:46:02.382Z,92.04
2023-02-25T12:47:02.288Z,78.74
2023-02-25T12:48:02.284Z,70.63
2023-02-25T12:49:02.280Z,81.03
2023-02-25T12:50:01.288Z,70.36
2023-02-25T12:51:02.265Z,71.31
2023-02-25T12:52:02.282Z,58.14
2023-02-25T12:53:02.327Z,55.07